createdAt,value
2023-02-06T00:01:19.692Z,24.85
2023-02-06T00:03:47.333Z,29.33
2023-02-06T00:06:15.157Z,26.67
2023-02-06T00:08:42.508Z,30.10
2023-02-06T00:11:13.114Z,24.77
2023-02-06T00:13:40.374Z,28.20
2023-02-06T00:16:23.275Z,24.25
2023-02-06T00:18:51.261Z,25.48
2023-02-06T00:21:21.800Z,28.92
2023-02-06T00:23:49.959Z,24.25
2023-02-06T00:26:17.794Z,28.60
2023-02-06T00:28:45.702Z,28.80
2023-02-06T00:31:13.201Z,25.33
2023-02-06T00:33:40.612Z,25.77
2023-02-06T00:36:08.306Z,27.58
2023-02-06T00:38:37.685Z,22.50
2023-02-06T00:41:05.425Z,24.83
2023-02-06T00:43:32.836Z,26.73
2023-02-06T00:46:00.159Z,21.55
2023-02-06T00:48:27.775Z,23.05
2023-02-06T00:50:55.202Z,46.83
2023-02-06T00:53:22.591Z,45.38
2023-02-06T00:55:49.799Z,41.95
2023-02-06T00:58:17.061Z,33.80
2023-02-06T01:00:44.400Z,31.88
2023-02-06T01:03:11.872Z,33.22
2023-02-06T01:05:39.176Z,41.17
2023-02-06T01:08:06.715Z,33.15
2023-02-06T01:10:34.081Z,30.00
2023-02-06T01:13:01.391Z,33.38
2023-02-06T01:15:28.718Z,31.00
2023-02-06T01:17:55.986Z,31.48
2023-02-06T01:20:24.044Z,27.02
2023-02-06T01:22:51.793Z,27.13
2023-02-06T01:25:19.060Z,28.30
2023-02-06T01:27:46.294Z,30.13
2023-02-06T01:30:14.277Z,30.92
2023-02-06T01:32:42.228Z,51.17
2023-02-06T01:35:10.620Z,42.65
2023-02-06T01:37:39.102Z,41.63
2023-02-06T01:40:08.616Z,41.55
2023-02-06T01:42:37.154Z,35.65
2023-02-06T01:45:26.646Z,30.30
2023-02-06T01:48:01.364Z,27.00
2023-02-06T01:50:29.993Z,29.98
2023-02-06T01:52:57.382Z,29.45
2023-02-06T01:55:24.719Z,27.70
2023-02-06T01:57:52.569Z,30.20
2023-02-06T02:00:20.130Z,22.45
2023-02-06T02:02:50.752Z,24.63
2023-02-06T02:05:19.139Z,30.88
2023-02-06T02:08:00.926Z,24.40
2023-02-06T02:10:31.874Z,26.23
2023-02-06T02:12:59.374Z,18.40
2023-02-06T02:15:39.122Z,23.10
2023-02-06T02:18:27.424Z,24.52
2023-02-06T02:21:12.010Z,27.27
2023-02-06T02:23:45.697Z,20.50
2023-02-06T02:26:42.355Z,25.40
2023-02-06T02:29:35.046Z,21.00
2023-02-06T02:32:13.928Z,19.25
2023-02-06T02:35:18.101Z,21.77
2023-02-06T02:38:06.325Z,21.48
2023-02-06T02:41:03.187Z,20.27
2023-02-06T02:43:44.032Z,25.70
2023-02-06T02:46:29.280Z,24.73
2023-02-06T02:49:00.657Z,21.95
2023-02-06T02:51:27.888Z,27.65
2023-02-06T02:53:57.574Z,25.27
2023-02-06T02:56:26.263Z,23.38
2023-02-06T02:58:58.888Z,22.80
2023-02-06T03:01:32.279Z,19.27
2023-02-06T03:04:07.149Z,22.77
2023-02-06T03:06:59.262Z,18.88
2023-02-06T03:09:59.306Z,22.67
2023-02-06T03:12:51.158Z,17.70
2023-02-06T03:15:24.184Z,21.70
2023-02-06T03:17:59.295Z,18.27
2023-02-06T03:20:26.802Z,22.98
2023-02-06T03:22:54.686Z,19.30
2023-02-06T03:25:28.696Z,24.92
2023-02-06T03:27:56.373Z,25.30
2023-02-06T03:30:24.785Z,19.38
2023-02-06T03:32:56.703Z,18.37
2023-02-06T03:35:29.908Z,19.05
2023-02-06T03:37:57.337Z,17.95
2023-02-06T03:40:26.108Z,18.00
2023-02-06T03:42:57.364Z,20.90
2023-02-06T03:45:31.070Z,20.63
2023-02-06T03:48:04.867Z,22.52
2023-02-06T03:50:33.079Z,24.23
2023-02-06T03:53:01.917Z,19.25
2023-02-06T03:55:29.190Z,20.73
2023-02-06T03:58:04.030Z,20.40
2023-02-06T04:00:32.154Z,18.85
2023-02-06T04:03:01.326Z,23.08
2023-02-06T04:05:28.672Z,25.92
2023-02-06T04:07:56.897Z,22.80
2023-02-06T04:10:26.288Z,21.77
2023-02-06T04:12:53.602Z,23.15
2023-02-06T04:15:20.825Z,21.55
2023-02-06T04:17:59.203Z,19.45
2023-02-06T04:20:27.216Z,17.95
2023-02-06T04:22:54.840Z,29.65
2023-02-06T04:25:22.154Z,19.00
2023-02-06T04:27:49.601Z,19.48
2023-02-06T04:30:17.973Z,19.00
2023-02-06T04:32:45.219Z,16.37
2023-02-06T04:35:12.588Z,19.10
2023-02-06T04:37:39.863Z,18.88
2023-02-06T04:40:07.494Z,25.27
2023-02-06T04:42:34.745Z,20.67
2023-02-06T04:45:02.136Z,17.23
2023-02-06T04:47:29.363Z,19.17
2023-02-06T04:49:56.565Z,18.15
2023-02-06T04:52:23.865Z,17.50
2023-02-06T04:54:51.121Z,19.38
2023-02-06T04:57:18.387Z,18.00
2023-02-06T04:59:45.675Z,20.30
2023-02-06T05:02:12.928Z,23.77
2023-02-06T05:04:40.111Z,20.50
2023-02-06T05:07:07.467Z,20.27
2023-02-06T05:09:34.682Z,16.65
2023-02-06T05:12:01.906Z,20.15
2023-02-06T05:14:29.143Z,17.90
2023-02-06T05:16:56.332Z,18.75
2023-02-06T05:19:23.754Z,17.75
2023-02-06T05:21:50.926Z,25.70
2023-02-06T05:24:18.175Z,16.67
2023-02-06T05:26:46.506Z,16.30
2023-02-06T05:29:13.813Z,19.58
2023-02-06T05:31:41.147Z,20.45
2023-02-06T05:34:09.702Z,18.13
2023-02-06T05:36:37.115Z,18.77
2023-02-06T05:39:04.771Z,19.73
2023-02-06T05:41:32.138Z,19.08
2023-02-06T05:43:59.331Z,17.40
2023-02-06T05:46:26.760Z,21.13
2023-02-06T05:48:54.015Z,20.65
2023-02-06T05:51:21.263Z,21.45
2023-02-06T05:53:50.439Z,20.55
2023-02-06T05:56:18.634Z,23.20
2023-02-06T05:58:45.911Z,21.10
2023-02-06T06:01:13.661Z,20.45
2023-02-06T06:03:40.843Z,27.13
2023-02-06T06:06:08.564Z,22.23
2023-02-06T06:08:36.123Z,24.77
2023-02-06T06:11:03.399Z,20.73
2023-02-06T06:13:30.664Z,23.58
2023-02-06T06:15:58.308Z,20.13
2023-02-06T06:18:25.561Z,18.92
2023-02-06T06:20:53.414Z,18.48
2023-02-06T06:23:20.841Z,23.02
2023-02-06T06:25:48.707Z,22.50
2023-02-06T06:28:16.378Z,19.25
2023-02-06T06:30:46.658Z,21.48
2023-02-06T06:33:16.767Z,21.60
2023-02-06T06:35:44.246Z,21.92
2023-02-06T06:38:11.527Z,24.23
2023-02-06T06:40:39.817Z,19.52
2023-02-06T06:43:07.065Z,20.27
2023-02-06T06:45:34.709Z,27.70
2023-02-06T06:48:02.308Z,21.15
2023-02-06T06:50:29.605Z,21.88
2023-02-06T06:52:58.813Z,22.35
2023-02-06T06:55:26.144Z,21.13
2023-02-06T06:57:54.340Z,26.05
2023-02-06T07:00:21.642Z,22.83
2023-02-06T07:02:48.931Z,30.20
2023-02-06T07:05:16.601Z,26.83
2023-02-06T07:07:43.880Z,27.52
2023-02-06T07:10:13.632Z,30.70
2023-02-06T07:12:41.191Z,28.02
2023-02-06T07:15:10.222Z,25.67
2023-02-06T07:17:38.044Z,28.42
2023-02-06T07:20:05.696Z,26.67
2023-02-06T07:22:35.358Z,28.38
2023-02-06T07:25:02.676Z,29.30
2023-02-06T07:27:30.115Z,26.85
2023-02-06T07:29:57.358Z,28.00
2023-02-06T07:32:24.573Z,37.90
2023-02-06T07:34:51.864Z,36.58
2023-02-06T07:37:25.163Z,28.73
2023-02-06T07:39:55.452Z,33.38
2023-02-06T07:42:27.091Z,31.42
2023-02-06T07:44:54.985Z,34.65
2023-02-06T07:47:25.113Z,30.25
2023-02-06T07:49:53.798Z,33.63
2023-02-06T07:52:22.502Z,33.75
2023-02-06T07:54:49.929Z,37.50
2023-02-06T07:57:19.096Z,28.73
2023-02-06T07:59:46.370Z,30.67
2023-02-06T08:02:13.599Z,32.45
2023-02-06T08:04:40.880Z,30.92
2023-02-06T08:07:11.223Z,28.48
2023-02-06T08:09:38.524Z,28.25
2023-02-06T08:12:05.856Z,25.95
2023-02-06T08:14:33.133Z,28.27
2023-02-06T08:17:00.661Z,32.78
2023-02-06T08:19:28.211Z,27.45
2023-02-06T08:21:55.431Z,30.00
2023-02-06T08:24:22.687Z,31.75
2023-02-06T08:26:50.316Z,29.52
2023-02-06T08:29:17.585Z,30.38
2023-02-06T08:31:44.813Z,30.85
2023-02-06T08:34:13.643Z,28.50
2023-02-06T08:36:43.179Z,27.02
2023-02-06T08:39:13.475Z,30.30
2023-02-06T08:41:43.189Z,24.17
2023-02-06T08:44:21.712Z,28.98
2023-02-06T08:46:56.224Z,28.27
2023-02-06T08:49:28.827Z,29.05
2023-02-06T08:51:56.500Z,27.70
2023-02-06T08:54:24.432Z,29.27
2023-02-06T08:56:52.719Z,31.65
2023-02-06T08:59:20.460Z,33.55
2023-02-06T09:01:49.928Z,30.73
2023-02-06T09:04:19.174Z,33.97
2023-02-06T09:06:49.061Z,36.78
2023-02-06T09:09:16.592Z,33.92
2023-02-06T09:11:43.976Z,33.60
2023-02-06T09:14:15.445Z,36.40
2023-02-06T09:16:42.942Z,33.83
2023-02-06T09:19:11.481Z,39.85
2023-02-06T09:21:38.830Z,33.47
2023-02-06T09:24:08.643Z,29.83
2023-02-06T09:26:44.810Z,42.67
2023-02-06T09:29:20.911Z,35.45
2023-02-06T09:31:48.219Z,36.47
2023-02-06T09:34:15.463Z,41.50
2023-02-06T09:36:42.835Z,42.05
2023-02-06T09:39:10.358Z,46.05
2023-02-06T09:41:54.228Z,47.75
2023-02-06T09:44:41.033Z,47.92
2023-02-06T09:47:30.548Z,47.55
2023-02-06T09:50:41.330Z,42.45
2023-02-06T09:53:29.484Z,50.30
2023-02-06T09:56:16.059Z,49.55
2023-02-06T09:58:55.464Z,47.85
2023-02-06T10:01:34.607Z,51.75
2023-02-06T10:04:33.458Z,43.78
2023-02-06T10:07:13.321Z,49.47
2023-02-06T10:09:51.119Z,46.72
2023-02-06T10:12:41.339Z,47.28
2023-02-06T10:15:18.279Z,41.60
2023-02-06T10:17:59.717Z,41.38
2023-02-06T10:20:41.285Z,39.92
2023-02-06T10:23:47.698Z,37.63
2023-02-06T10:26:36.566Z,40.45
2023-02-06T10:29:04.483Z,37.05
2023-02-06T10:31:45.020Z,41.97
2023-02-06T10:34:33.083Z,38.80
2023-02-06T10:37:29.793Z,40.15
2023-02-06T10:40:20.764Z,40.55
2023-02-06T10:42:50.793Z,41.88
2023-02-06T10:45:33.966Z,40.55
2023-02-06T10:48:34.271Z,44.58
2023-02-06T10:51:21.369Z,33.08
2023-02-06T10:54:19.499Z,37.67
2023-02-06T10:56:48.131Z,33.58
2023-02-06T10:59:34.785Z,33.70
2023-02-06T11:02:21.068Z,34.88
2023-02-06T11:05:21.202Z,35.00
2023-02-06T11:07:59.545Z,34.72
2023-02-06T11:10:27.517Z,28.60
2023-02-06T11:13:26.716Z,33.95
2023-02-06T11:18:37.521Z,31.85
2023-02-06T11:21:05.329Z,31.30
2023-02-06T11:23:34.955Z,32.22
2023-02-06T11:26:22.408Z,29.20
2023-02-06T11:28:58.302Z,39.28
2023-02-06T11:32:03.003Z,32.15
2023-02-06T11:34:51.535Z,29.33
2023-02-06T11:37:38.661Z,32.20
2023-02-06T11:40:22.581Z,35.95
2023-02-06T11:43:08.308Z,33.17
2023-02-06T11:45:36.564Z,34.08
2023-02-06T11:48:07.717Z,42.17
2023-02-06T11:50:46.858Z,38.55
2023-02-06T11:53:19.406Z,42.83
2023-02-06T11:55:59.462Z,41.33
2023-02-06T11:58:36.263Z,36.55
2023-02-06T12:01:09.608Z,37.03
2023-02-06T12:03:51.730Z,41.92
2023-02-06T12:06:32.433Z,40.95
2023-02-06T12:09:02.448Z,38.00
2023-02-06T12:11:47.703Z,39.58
2023-02-06T12:14:22.418Z,38.72
2023-02-06T12:16:50.258Z,37.55
2023-02-06T12:19:26.645Z,34.40
2023-02-06T12:21:58.650Z,35.28
2023-02-06T12:24:40.001Z,42.63
2023-02-06T12:27:17.120Z,40.20
2023-02-06T12:30:05.926Z,55.60
2023-02-06T12:32:44.976Z,51.80
2023-02-06T12:35:43.714Z,44.90
2023-02-06T12:38:20.111Z,45.03
2023-02-06T12:41:05.273Z,45.40
2023-02-06T12:43:52.084Z,41.47
2023-02-06T12:46:24.161Z,43.38
2023-02-06T12:49:16.376Z,43.47
2023-02-06T12:52:03.115Z,42.47
2023-02-06T12:55:13.979Z,46.65
2023-02-06T12:57:41.536Z,45.97
2023-02-06T13:00:13.746Z,48.45
2023-02-06T13:02:50.426Z,44.65
2023-02-06T13:05:37.966Z,51.40
2023-02-06T13:08:26.915Z,49.33
2023-02-06T13:11:35.579Z,52.00
2023-02-06T13:14:19.495Z,49.00
2023-02-06T13:16:52.852Z,48.58
2023-02-06T13:19:29.403Z,50.83
2023-02-06T13:22:13.064Z,53.85
2023-02-06T13:24:42.635Z,58.45
2023-02-06T13:27:16.604Z,54.00
2023-02-06T13:29:47.029Z,54.75
2023-02-06T13:32:18.685Z,53.35
2023-02-06T13:34:58.086Z,52.38
2023-02-06T13:40:32.185Z,49.53
2023-02-06T13:43:17.253Z,53.60
2023-02-06T13:46:00.300Z,47.58
2023-02-06T13:48:46.903Z,53.78
2023-02-06T13:51:28.466Z,46.72
2023-02-06T13:54:27.459Z,58.72
2023-02-06T13:57:16.046Z,56.97
2023-02-06T13:59:53.336Z,47.92
2023-02-06T14:02:31.019Z,51.33
2023-02-06T14:04:59.378Z,47.97
2023-02-06T14:07:57.842Z,46.90
2023-02-06T14:10:41.362Z,49.88
2023-02-06T14:13:46.082Z,52.30
2023-02-06T14:16:43.370Z,56.67
2023-02-06T14:19:28.749Z,53.65
2023-02-06T14:22:16.485Z,53.80
2023-02-06T14:25:23.973Z,57.17
2023-02-06T14:28:22.258Z,61.60
2023-02-06T14:31:01.467Z,59.17
2023-02-06T14:33:51.554Z,60.47
2023-02-06T14:36:32.534Z,54.75
2023-02-06T14:39:28.559Z,50.80
2023-02-06T14:41:56.005Z,53.33
2023-02-06T14:44:30.598Z,56.58
2023-02-06T14:46:58.198Z,52.80
2023-02-06T14:49:35.343Z,50.53
2023-02-06T14:52:04.049Z,55.88
2023-02-06T14:54:38.589Z,57.10
2023-02-06T14:57:13.738Z,55.25
2023-02-06T15:00:04.740Z,49.28
2023-02-06T15:02:36.653Z,51.20
2023-02-06T15:05:05.256Z,54.63
2023-02-06T15:07:37.898Z,60.70
2023-02-06T15:10:12.083Z,85.90
2023-02-06T15:12:39.354Z,70.75
2023-02-06T15:15:22.318Z,55.08
2023-02-06T15:18:01.076Z,59.50
2023-02-06T15:20:36.630Z,60.08
2023-02-06T15:23:17.086Z,62.78
2023-02-06T15:25:50.327Z,62.00
2023-02-06T15:28:20.576Z,59.47
2023-02-06T15:30:53.919Z,51.47
2023-02-06T15:33:33.549Z,53.65
2023-02-06T15:36:04.984Z,55.55
2023-02-06T15:38:33.726Z,59.35
2023-02-06T15:41:04.599Z,55.85
2023-02-06T15:43:32.490Z,59.13
2023-02-06T15:46:04.770Z,56.35
2023-02-06T15:48:43.630Z,54.95
2023-02-06T15:51:30.294Z,52.15
2023-02-06T15:54:20.951Z,49.40
2023-02-06T15:57:19.408Z,59.88
2023-02-06T15:59:46.900Z,58.95
2023-02-06T16:02:35.497Z,55.35
2023-02-06T16:05:03.991Z,48.00
2023-02-06T16:07:38.417Z,47.80
2023-02-06T16:10:08.798Z,46.67
2023-02-06T16:12:38.113Z,55.13
2023-02-06T16:17:50.232Z,39.78
2023-02-06T16:20:37.144Z,42.38
2023-02-06T16:23:28.066Z,45.63
2023-02-06T16:26:25.349Z,42.08
2023-02-06T16:29:14.561Z,44.67
2023-02-06T16:32:13.056Z,40.78
2023-02-06T16:34:42.974Z,44.17
2023-02-06T16:37:21.784Z,44.58
2023-02-06T16:39:50.980Z,41.95
2023-02-06T16:42:28.629Z,45.53
2023-02-06T16:45:00.471Z,42.70
2023-02-06T16:47:36.552Z,44.20
2023-02-06T16:50:04.445Z,41.92
2023-02-06T16:52:34.309Z,47.15
2023-02-06T16:55:22.068Z,49.97
2023-02-06T16:57:56.955Z,43.28
2023-02-06T17:00:26.453Z,43.17
2023-02-06T17:02:54.548Z,49.03
2023-02-06T17:05:25.371Z,60.13
2023-02-06T17:07:53.413Z,53.58
2023-02-06T17:10:24.498Z,55.30
2023-02-06T17:12:52.135Z,54.25
2023-02-06T17:15:21.127Z,61.50
2023-02-06T17:17:48.385Z,64.75
2023-02-06T17:20:34.409Z,63.92
2023-02-06T17:23:15.300Z,64.25
2023-02-06T17:25:49.593Z,62.08
2023-02-06T17:28:18.991Z,64.55
2023-02-06T17:30:48.729Z,68.25
2023-02-06T17:33:18.399Z,67.43
2023-02-06T17:35:47.253Z,65.13
2023-02-06T17:38:14.615Z,75.60
2023-02-06T17:40:42.221Z,70.32
2023-02-06T17:43:13.007Z,65.70
2023-02-06T17:45:42.798Z,74.05
2023-02-06T17:48:13.340Z,58.33
2023-02-06T17:50:41.485Z,60.67
2023-02-06T17:53:12.339Z,58.60
2023-02-06T17:55:39.680Z,61.70
2023-02-06T17:58:07.736Z,64.18
2023-02-06T18:00:35.231Z,70.95
2023-02-06T18:03:12.943Z,71.35
2023-02-06T18:05:40.238Z,72.97
2023-02-06T18:08:08.619Z,63.47
2023-02-06T18:10:37.108Z,66.63
2023-02-06T18:13:06.921Z,68.28
2023-02-06T18:15:34.164Z,70.05
2023-02-06T18:18:01.745Z,66.80
2023-02-06T18:20:29.035Z,64.65
2023-02-06T18:22:56.388Z,73.43
2023-02-06T18:25:23.960Z,71.43
2023-02-06T18:27:51.381Z,75.63
2023-02-06T18:30:18.770Z,78.75
2023-02-06T18:32:46.596Z,73.15
2023-02-06T18:35:15.068Z,76.97
2023-02-06T18:37:43.930Z,63.80
2023-02-06T18:40:12.845Z,62.00
2023-02-06T18:42:53.458Z,81.90
2023-02-06T18:45:34.345Z,89.13
2023-02-06T18:48:03.917Z,116.13
2023-02-06T18:50:31.675Z,100.28
2023-02-06T18:52:59.441Z,109.63
2023-02-06T18:55:26.860Z,116.35
2023-02-06T18:57:54.287Z,81.20
2023-02-06T19:00:23.493Z,78.32
2023-02-06T19:02:50.960Z,82.97
2023-02-06T19:05:18.654Z,82.13
2023-02-06T19:07:51.875Z,87.85
2023-02-06T19:10:19.789Z,83.35
2023-02-06T19:12:47.498Z,77.15
2023-02-06T19:15:15.801Z,78.32
2023-02-06T19:17:43.606Z,83.20
2023-02-06T19:20:13.534Z,78.28
2023-02-06T19:22:40.808Z,79.40
2023-02-06T19:25:12.642Z,80.13
2023-02-06T19:27:41.648Z,82.15
2023-02-06T19:30:13.088Z,80.32
2023-02-06T19:32:44.635Z,77.18
2023-02-06T19:35:12.964Z,83.18
2023-02-06T19:37:40.414Z,87.63
2023-02-06T19:40:20.414Z,84.60
2023-02-06T19:42:53.036Z,81.05
2023-02-06T19:45:21.689Z,108.35
2023-02-06T19:47:48.944Z,97.97
2023-02-06T19:50:17.846Z,95.45
2023-02-06T19:52:45.205Z,101.55
2023-02-06T19:55:12.693Z,111.32
2023-02-06T19:57:40.956Z,101.55
2023-02-06T20:00:16.606Z,94.03
2023-02-06T20:02:44.366Z,88.07
2023-02-06T20:05:11.638Z,98.05
2023-02-06T20:07:38.899Z,88.38
2023-02-06T20:10:06.464Z,94.78
2023-02-06T20:12:33.794Z,86.68
2023-02-06T20:15:01.854Z,89.50
2023-02-06T20:17:43.777Z,90.55
2023-02-06T20:20:14.086Z,86.78
2023-02-06T20:22:46.910Z,91.05
2023-02-06T20:25:17.463Z,79.95
2023-02-06T20:27:47.041Z,77.72
2023-02-06T20:30:29.772Z,85.40
2023-02-06T20:32:57.543Z,86.50
2023-02-06T20:35:26.347Z,88.20
2023-02-06T20:38:05.178Z,90.00
2023-02-06T20:40:35.913Z,91.10
2023-02-06T20:43:06.698Z,88.97
2023-02-06T20:45:43.304Z,95.03
2023-02-06T20:48:10.748Z,88.82
2023-02-06T20:50:38.436Z,103.82
2023-02-06T20:53:07.221Z,102.18
2023-02-06T20:55:49.961Z,103.57
2023-02-06T20:58:17.575Z,93.45
2023-02-06T21:00:45.102Z,88.30
2023-02-06T21:03:18.646Z,92.53
2023-02-06T21:05:59.728Z,98.63
2023-02-06T21:08:30.422Z,88.72
2023-02-06T21:11:01.285Z,84.65
2023-02-06T21:13:34.541Z,88.43
2023-02-06T21:16:03.710Z,82.35
2023-02-06T21:21:09.076Z,85.50
2023-02-06T21:23:37.824Z,99.60
2023-02-06T21:26:09.796Z,103.47
2023-02-06T21:28:46.564Z,105.15
2023-02-06T21:31:26.328Z,101.75
2023-02-06T21:34:02.785Z,115.78
2023-02-06T21:36:36.340Z,118.18
2023-02-06T21:39:07.567Z,106.68
2023-02-06T21:41:42.217Z,106.78
2023-02-06T21:44:18.102Z,104.85
2023-02-06T21:50:08.985Z,102.63
2023-02-06T21:52:44.453Z,103.82
2023-02-06T21:55:12.344Z,122.20
2023-02-06T21:57:40.222Z,115.40
2023-02-06T22:00:10.136Z,104.13
2023-02-06T22:02:41.915Z,96.45
2023-02-06T22:05:11.356Z,131.18
2023-02-06T22:07:39.215Z,102.07
2023-02-06T22:10:07.311Z,107.28
2023-02-06T22:12:35.075Z,101.97
2023-02-06T22:15:03.478Z,95.28
2023-02-06T22:17:31.729Z,87.50
2023-02-06T22:19:59.085Z,96.68
2023-02-06T22:22:30.919Z,98.82
2023-02-06T22:24:59.404Z,100.25
2023-02-06T22:27:27.109Z,101.93
2023-02-06T22:29:55.079Z,97.88
2023-02-06T22:32:22.644Z,97.72
2023-02-06T22:34:51.550Z,102.28
2023-02-06T22:37:25.981Z,92.25
2023-02-06T22:39:55.867Z,91.72
2023-02-06T22:42:25.611Z,97.25
2023-02-06T22:44:53.995Z,95.65
2023-02-06T22:47:21.308Z,84.33
2023-02-06T22:49:52.669Z,86.57
2023-02-06T22:52:38.820Z,95.93
2023-02-06T22:55:09.424Z,93.57
2023-02-06T22:57:37.513Z,91.80
2023-02-06T23:00:09.410Z,85.28
2023-02-06T23:02:37.635Z,85.07
2023-02-06T23:05:19.512Z,86.43
2023-02-06T23:07:46.807Z,88.60
2023-02-06T23:10:14.047Z,92.22
2023-02-06T23:12:41.369Z,98.90
2023-02-06T23:15:09.222Z,91.47
2023-02-06T23:17:36.537Z,99.72
2023-02-06T23:20:04.225Z,102.82
2023-02-06T23:22:31.511Z,108.25
2023-02-06T23:24:58.813Z,105.35
2023-02-06T23:27:27.419Z,98.97
2023-02-06T23:29:54.638Z,97.40
2023-02-06T23:32:21.906Z,90.30
2023-02-06T23:34:49.399Z,91.05
2023-02-06T23:37:16.643Z,88.20
2023-02-06T23:39:43.894Z,95.35
2023-02-06T23:42:11.901Z,91.75
2023-02-06T23:44:39.160Z,86.38
2023-02-06T23:47:06.498Z,86.82
2023-02-06T23:49:33.889Z,86.20
2023-02-06T23:52:01.248Z,85.45
2023-02-06T23:54:28.874Z,94.03
2023-02-06T23:56:56.841Z,87.95
2023-02-06T23:59:24.430Z,100.20
